Time;durP1;ratioP1;P1;durP2;ratioP2;P2;SDS_P1;SDS_P2;PMS_P1;PMS_P2;Temp;Humidity;BMP_temperature;BMP_pressure;BME280_temperature;BME280_humidity;BME280_pressure;Samples;Min_cycle;Max_cycle;Signal;HPM_P1;HPM_P2
2021/08/04 00:02:25;;;;;;;4.50;1.92;;;;;;;17.27;58.63;100671.53;3584034;40;20106;-77
2021/08/04 00:04:52;;;;;;;4.50;1.88;;;;;;;17.29;58.36;100679.41;3578779;40;20048;-77
2021/08/04 00:07:19;;;;;;;4.13;1.83;;;;;;;17.26;58.96;100688.31;3583206;40;20060;-77
2021/08/04 00:09:48;;;;;;;;;;;;;;;17.30;56.99;100695.16;3571359;40;20845;-78
2021/08/04 00:12:15;;;;;;;4.15;1.80;;;;;;;17.19;59.04;100681.66;3584259;40;19961;-77
2021/08/04 00:14:44;;;;;;;5.07;1.90;;;;;;;17.11;58.55;100674.09;3585529;40;20045;-78
2021/08/04 00:17:11;;;;;;;5.80;1.77;;;;;;;17.06;58.99;100673.47;3573701;40;20081;-77
2021/08/04 00:19:38;;;;;;;3.63;1.60;;;;;;;17.10;58.87;100692.66;3586743;40;20108;-77
2021/08/04 00:22:05;;;;;;;3.10;1.40;;;;;;;17.08;59.04;100689.22;3583398;40;20535;-78
2021/08/04 00:24:32;;;;;;;4.07;1.80;;;;;;;16.94;59.25;100675.88;3580446;40;20411;-78
2021/08/04 00:27:11;;;;;;;4.28;1.90;;;;;;;17.03;58.25;100691.22;3577418;40;20522;-77
2021/08/04 00:29:40;;;;;;;2.67;1.30;;;;;;;16.96;58.88;100690.69;3560861;40;20079;-77
2021/08/04 00:32:10;;;;;;;4.18;1.77;;;;;;;16.93;58.96;100685.59;3576493;40;20072;-76
2021/08/04 00:34:39;;;;;;;3.13;1.45;;;;;;;16.93;59.15;100700.53;3578679;40;20049;-76
2021/08/04 00:37:08;;;;;;;3.83;1.23;;;;;;;16.88;59.09;100692.88;3577122;40;20518;-77
2021/08/04 00:39:35;;;;;;;4.38;1.55;;;;;;;16.79;58.89;100680.97;3588293;40;20489;-78
2021/08/04 00:42:07;;;;;;;3.63;1.52;;;;;;;16.76;59.10;100675.00;3573139;40;20114;-77
2021/08/04 00:44:35;;;;;;;3.90;1.85;;;;;;;16.70;59.60;100677.91;3575371;40;20044;-78
2021/08/04 00:47:04;;;;;;;4.68;2.22;;;;;;;16.79;59.53;100699.44;3586363;40;20132;-78
2021/08/04 00:49:33;;;;;;;4.13;2.13;;;;;;;16.78;59.19;100697.75;3555295;40;20048;-80
2021/08/04 00:52:02;;;;;;;5.18;2.05;;;;;;;16.69;59.47;100687.59;3574012;40;20101;-79
2021/08/04 00:54:30;;;;;;;5.32;2.13;;;;;;;16.71;59.50;100701.59;3564813;40;20072;-78
2021/08/04 00:56:57;;;;;;;5.22;1.98;;;;;;;16.67;60.17;100699.97;3577467;40;20060;-79
2021/08/04 00:59:27;;;;;;;4.70;1.97;;;;;;;16.51;59.73;100678.78;3575237;40;20055;-79
2021/08/04 01:02:09;;;;;;;5.72;2.20;;;;;;;16.64;59.28;100700.16;3565941;40;20256;-78
2021/08/04 01:04:52;;;;;;;1.90;0.88;;;;;;;16.60;58.62;100698.56;3569748;40;20064;-78
2021/08/04 01:07:27;;;;;;;3.08;1.20;;;;;;;16.49;59.17;100682.41;3572013;40;20085;-78
2021/08/04 01:10:11;;;;;;;4.30;1.60;;;;;;;16.48;58.74;100688.63;3570228;40;20064;-78
2021/08/04 01:12:50;;;;;;;2.92;1.35;;;;;;;16.48;59.19;100693.91;3582852;40;20048;-79
2021/08/04 01:15:18;;;;;;;3.85;1.33;;;;;;;16.39;59.72;100683.78;3569811;40;20048;-79
2021/08/04 01:17:50;;;;;;;4.22;1.70;;;;;;;16.38;59.90;100692.63;3566510;40;20046;-78
2021/08/04 01:20:25;;;;;;;4.88;1.90;;;;;;;16.37;59.85;100701.44;3579474;40;20439;-79
2021/08/04 01:23:40;;;;;;;4.22;1.65;;;;;;;16.32;58.59;100684.06;3564887;40;20638;-79
2021/08/04 01:26:20;;;;;;;3.63;1.52;;;;;;;16.26;60.05;100689.59;3584063;40;20041;-78
2021/08/04 01:28:51;;;;;;;4.38;1.73;;;;;;;16.22;59.81;100682.78;3563977;40;20090;-79
2021/08/04 01:31:24;;;;;;;2.35;1.17;;;;;;;16.15;59.52;100677.88;3570179;40;20065;-79
2021/08/04 01:33:55;;;;;;;2.92;1.23;;;;;;;16.16;59.44;100682.19;3561981;40;20085;-79
2021/08/04 01:36:25;;;;;;;4.25;1.38;;;;;;;16.13;59.87;100680.59;3577210;40;20073;-79
2021/08/04 01:38:57;;;;;;;4.00;1.70;;;;;;;15.80;60.09;100633.78;3575768;40;20064;-79
2021/08/04 01:41:25;;;;;;;8.20;1.98;;;;;;;15.96;60.72;100664.69;3572416;40;20516;-78
2021/08/04 01:43:54;;;;;;;5.75;2.17;;;;;;;16.02;60.23;100674.97;3578533;40;20052;-79
2021/08/04 01:46:23;;;;;;;5.03;2.00;;;;;;;15.96;60.29;100670.78;3577865;40;20061;-78
2021/08/04 01:48:52;;;;;;;2.45;1.10;;;;;;;15.77;60.00;100643.59;3568360;40;20107;-79
2021/08/04 01:51:24;;;;;;;5.22;1.70;;;;;;;15.92;59.97;100671.88;3577758;40;20855;-79
2021/08/04 01:53:52;;;;;;;3.63;1.50;;;;;;;15.71;60.48;100644.75;3554348;40;20045;-79
2021/08/04 01:56:26;;;;;;;4.82;2.20;;;;;;;15.86;60.26;100668.66;3582777;40;20218;-79
2021/08/04 01:58:58;;;;;;;2.60;1.17;;;;;;;15.80;59.96;100673.25;3563082;40;20077;-79
2021/08/04 02:01:26;;;;;;;4.28;1.52;;;;;;;15.66;60.58;100657.25;3579982;39;21025;-79
2021/08/04 02:03:54;;;;;;;2.95;1.35;;;;;;;15.74;60.76;100668.28;3572321;40;20048;-79
2021/08/04 02:06:25;;;;;;;4.53;1.80;;;;;;;15.67;60.32;100663.38;3570768;40;20497;-79
2021/08/04 02:08:58;;;;;;;3.88;1.55;;;;;;;15.74;60.22;100677.97;3578916;40;20049;-79
2021/08/04 02:11:34;;;;;;;2.55;1.48;;;;;;;15.71;60.38;100681.59;3562813;40;20041;-78
2021/08/04 02:14:12;;;;;;;3.97;1.75;;;;;;;15.67;60.22;100679.16;3569331;40;20116;-79
2021/08/04 02:16:45;;;;;;;4.57;2.08;;;;;;;15.55;60.92;100664.72;3577004;40;20096;-79
2021/08/04 02:19:26;;;;;;;4.07;1.73;;;;;;;15.64;60.49;100684.56;3570327;40;20049;-78
2021/08/04 02:22:01;;;;;;;5.20;2.00;;;;;;;15.60;60.87;100678.53;3571258;40;20071;-79
2021/08/04 02:24:33;;;;;;;4.32;1.73;;;;;;;15.58;61.12;100688.28;3580616;40;20048;-79
2021/08/04 02:27:03;;;;;;;2.83;1.40;;;;;;;15.25;60.96;100633.53;3571563;40;20545;-78
2021/08/04 02:29:34;;;;;;;4.40;1.70;;;;;;;15.53;61.01;100688.47;3565240;40;20055;-79
2021/08/04 02:32:26;;;;;;;3.63;1.48;;;;;;;15.54;60.23;100690.19;3579638;40;20065;-79
2021/08/04 02:34:57;;;;;;;3.58;1.40;;;;;;;15.32;61.20;100663.09;3567997;40;20033;-78
2021/08/04 02:37:25;;;;;;;4.35;1.83;;;;;;;15.39;61.42;100669.78;3578557;40;20553;-78
2021/08/04 02:39:54;;;;;;;4.35;1.95;;;;;;;15.34;61.56;100663.03;3565061;40;20041;-78
2021/08/04 02:42:22;;;;;;;4.35;1.90;;;;;;;15.34;61.49;100665.66;3576731;40;20050;-78
2021/08/04 02:44:52;;;;;;;3.85;1.85;;;;;;;15.44;61.26;100680.13;3575287;40;20041;-79
2021/08/04 02:47:19;;;;;;;3.55;1.70;;;;;;;15.37;61.44;100670.78;3573035;40;20056;-79
2021/08/04 02:49:46;;;;;;;2.67;1.23;;;;;;;15.41;61.20;100677.63;3579449;40;20040;-79
2021/08/04 02:52:18;;;;;;;10.70;2.03;;;;;;;15.45;61.40;100671.31;3558452;40;20038;-79
2021/08/04 02:54:54;;;;;;;4.57;1.85;;;;;;;15.39;61.00;100663.69;3566452;40;20076;-79
2021/08/04 02:57:21;;;;;;;6.43;2.50;;;;;;;15.31;62.08;100661.41;3566515;40;20045;-79
2021/08/04 02:59:48;;;;;;;3.23;1.20;;;;;;;15.22;61.66;100644.22;3560348;40;20061;-79
2021/08/04 03:02:15;;;;;;;4.45;1.63;;;;;;;15.19;62.16;100646.97;3554616;40;20056;-79
2021/08/04 03:04:42;;;;;;;4.37;2.10;;;;;;;15.18;62.25;100634.75;3575034;40;20038;-78
2021/08/04 03:07:09;;;;;;;4.28;1.70;;;;;;;15.36;62.15;100663.78;2176291;40;10001865;-79
2021/08/04 03:09:40;;;;;;;5.72;2.30;;;;;;;15.37;61.77;100673.44;2328271;40;10002033;-79
2021/08/04 03:12:09;;;;;;;4.30;1.63;;;;;;;15.34;62.09;100666.50;3578963;40;20048;-79
2021/08/04 03:14:37;;;;;;;4.30;1.67;;;;;;;15.32;62.17;100669.22;3547283;40;20120;-79
2021/08/04 03:17:08;;;;;;;2.88;1.30;;;;;;;15.34;61.68;100665.66;3584474;40;20119;-78
2021/08/04 03:19:35;;;;;;;3.47;1.23;;;;;;;15.19;62.54;100641.69;3566474;40;20074;-80
2021/08/04 03:22:06;;;;;;;5.20;2.03;;;;;;;15.35;62.57;100662.94;3584569;40;20060;-79
2021/08/04 03:24:34;;;;;;;3.92;1.67;;;;;;;15.30;62.31;100654.41;3574532;40;20089;-79
2021/08/04 03:27:00;;;;;;;;;;;;;;;15.41;61.00;100656.56;3567583;40;20619;-79
2021/08/04 03:29:28;;;;;;;5.63;2.00;;;;;;;15.37;62.54;100649.75;3587207;40;19963;-79
2021/08/04 03:32:23;;;;;;;5.13;2.10;;;;;;;15.41;61.65;100656.56;3562036;40;20044;-79
2021/08/04 03:34:59;;;;;;;6.70;2.40;;;;;;;15.35;62.68;100657.69;3580203;40;20061;-79
2021/08/04 03:37:26;;;;;;;6.05;2.45;;;;;;;15.34;63.35;100665.66;3577104;40;20072;-79
2021/08/04 03:39:52;;;;;;;6.00;2.17;;;;;;;15.25;63.10;100654.59;3581032;40;20057;-79
2021/08/04 03:42:27;;;;;;;3.20;1.30;;;;;;;15.16;62.32;100631.34;3582645;40;20101;-79
2021/08/04 03:44:57;;;;;;;4.50;1.55;;;;;;;15.28;62.99;100657.09;3574638;40;20061;-79
2021/08/04 03:47:25;;;;;;;4.97;2.17;;;;;;;15.32;63.59;100663.94;3568264;40;20052;-78
2021/08/04 03:49:52;;;;;;;4.80;1.95;;;;;;;15.34;63.53;100670.91;3573254;40;20617;-78
2021/08/04 03:52:21;;;;;;;5.95;2.45;;;;;;;15.34;63.60;100669.13;3569054;40;20559;-79
2021/08/04 03:54:50;;;;;;;3.22;1.50;;;;;;;15.32;63.01;100669.22;3570844;40;20085;-79
2021/08/04 03:57:17;;;;;;;4.88;2.05;;;;;;;15.34;63.40;100676.19;3563403;40;20044;-79
2021/08/04 03:59:45;;;;;;;8.50;2.28;;;;;;;15.30;63.79;100672.81;3584313;40;20060;-78
2021/08/04 04:02:11;;;;;;;6.90;2.15;;;;;;;15.34;63.58;100677.03;3571904;40;20053;-78
2021/08/04 04:04:44;;;;;;;4.95;1.80;;;;;;;15.35;62.68;100677.88;3562770;40;20056;-79
2021/08/04 04:07:16;;;;;;;4.75;2.00;;;;;;;15.27;62.95;100660.66;3565798;40;20049;-79
2021/08/04 04:09:44;;;;;;;5.15;2.00;;;;;;;15.28;63.46;100675.53;3574756;40;20145;-79
2021/08/04 04:12:11;;;;;;;4.43;1.70;;;;;;;15.31;63.63;100678.03;3584518;40;20041;-79
2021/08/04 04:14:38;;;;;;;4.70;2.13;;;;;;;15.22;63.61;100661.78;3580802;40;20071;-79
2021/08/04 04:17:32;;;;;;;5.45;2.58;;;;;;;15.37;62.16;100678.69;3581024;40;20583;-79
2021/08/04 04:20:01;;;;;;;5.30;2.20;;;;;;;15.36;64.19;100674.31;3577512;40;20053;-79
2021/08/04 04:22:32;;;;;;;5.72;2.38;;;;;;;15.34;63.63;100677.03;3573632;40;20063;-78
2021/08/04 04:25:00;;;;;;;6.10;1.85;;;;;;;15.25;63.55;100667.75;3584640;40;20052;-79
2021/08/04 04:27:28;;;;;;;5.72;2.20;;;;;;;15.23;63.92;100666.97;3587409;40;20056;-79
2021/08/04 04:29:56;;;;;;;;;;;;;;;15.36;61.86;100685.72;3567748;40;20056;-79
2021/08/04 04:32:26;;;;;;;4.35;2.10;;;;;;;15.14;63.43;100646.31;3579055;40;19928;-78
2021/08/04 04:34:53;;;;;;;5.75;2.30;;;;;;;15.31;63.66;100685.06;3606337;22;20945;-79
2021/08/04 04:37:20;;;;;;;3.05;1.50;;;;;;;15.13;63.39;100655.13;3585500;40;20060;-79
2021/08/04 04:39:49;;;;;;;3.78;1.63;;;;;;;15.31;63.72;100677.19;3595495;39;20115;-79
2021/08/04 04:42:21;;;;;;;4.20;1.70;;;;;;;15.34;63.33;100681.44;3578201;40;20053;-79
2021/08/04 04:44:52;;;;;;;4.38;1.63;;;;;;;15.34;63.25;100682.28;3583873;40;20117;-78
2021/08/04 04:47:18;;;;;;;4.20;1.88;;;;;;;15.27;63.76;100676.44;3575079;40;20048;-79
2021/08/04 04:49:52;;;;;;;7.22;2.72;;;;;;;15.20;63.28;100648.66;3588288;40;20044;-79
2021/08/04 04:52:19;;;;;;;4.72;2.03;;;;;;;15.34;63.86;100686.69;3577857;39;20651;-78
2021/08/04 04:54:45;;;;;;;5.47;2.45;;;;;;;15.19;63.91;100657.50;3589033;40;20041;-78
2021/08/04 04:57:12;;;;;;;4.70;2.03;;;;;;;15.23;63.22;100664.34;3585412;40;20129;-79
2021/08/04 04:59:41;;;;;;;6.47;2.43;;;;;;;15.29;63.78;100668.47;3594997;40;20052;-79
2021/08/04 05:02:08;;;;;;;5.30;2.13;;;;;;;15.26;63.93;100664.22;3575136;40;20326;-79
2021/08/04 05:04:35;;;;;;;3.90;1.70;;;;;;;15.17;63.43;100656.72;3582372;40;20061;-79
2021/08/04 05:07:02;;;;;;;4.45;2.17;;;;;;;15.34;63.80;100670.91;3572295;40;20069;-78
2021/08/04 05:09:39;;;;;;;5.68;2.20;;;;;;;15.43;63.23;100686.31;3591437;40;20044;-79
2021/08/04 05:12:08;;;;;;;4.32;1.80;;;;;;;15.42;63.62;100679.34;3585147;40;20051;-78
2021/08/04 05:14:40;;;;;;;5.35;2.15;;;;;;;15.34;63.60;100665.66;3595895;39;20405;-79
2021/08/04 05:17:36;;;;;;;5.32;2.28;;;;;;;15.47;62.66;100685.28;3585601;40;20057;-79
2021/08/04 05:20:11;;;;;;;4.20;1.67;;;;;;;15.47;63.56;100682.63;3585612;40;20056;-79
2021/08/04 05:22:43;;;;;;;3.58;1.45;;;;;;;15.40;63.52;100674.13;3586127;40;20302;-79
2021/08/04 05:25:16;;;;;;;4.45;1.70;;;;;;;15.29;63.88;100648.28;3580720;40;20130;-79
2021/08/04 05:27:48;;;;;;;4.70;2.13;;;;;;;15.45;64.20;100666.03;3573830;40;20046;-79
2021/08/04 05:30:18;;;;;;;5.97;2.13;;;;;;;15.50;64.46;100669.31;3590498;40;20072;-79
2021/08/04 05:32:47;;;;;;;6.40;1.83;;;;;;;15.36;64.22;100648.00;3571209;40;20055;-78
2021/08/04 05:35:14;;;;;;;4.25;1.48;;;;;;;15.46;64.10;100652.84;3578947;40;20059;-79
2021/08/04 05:37:41;;;;;;;5.88;2.08;;;;;;;15.50;64.46;100661.44;3587971;40;20064;-79
2021/08/04 05:40:11;;;;;;;3.25;1.50;;;;;;;15.58;63.90;100664.59;3596190;40;20115;-78
2021/08/04 05:42:40;;;;;;;3.55;1.63;;;;;;;15.48;64.04;100650.13;3588563;40;20080;-79
2021/08/04 05:45:16;;;;;;;3.67;1.70;;;;;;;15.60;63.83;100662.75;3575183;40;20049;-79
2021/08/04 05:47:44;;;;;;;5.05;1.67;;;;;;;15.53;64.33;100645.53;3581835;40;20044;-78
2021/08/04 05:50:20;;;;;;;4.43;1.90;;;;;;;15.71;63.77;100670.19;3592716;40;20048;-79
2021/08/04 05:52:48;;;;;;;3.63;1.77;;;;;;;15.56;64.42;100648.00;3577528;40;20044;-79
2021/08/04 05:55:14;;;;;;;5.40;1.73;;;;;;;15.66;64.60;100648.47;3596309;40;20147;-79
2021/08/04 05:57:41;;;;;;;4.90;1.87;;;;;;;15.58;65.21;100640.91;3600366;40;20113;-78
2021/08/04 06:00:09;;;;;;;5.90;2.23;;;;;;;15.75;65.01;100661.25;3581515;40;20102;-79
2021/08/04 06:03:01;;;;;;;5.35;2.25;;;;;;;15.82;63.49;100660.91;3582260;40;20043;-79
2021/08/04 06:05:28;;;;;;;6.63;2.50;;;;;;;15.72;65.58;100646.44;3587431;40;20060;-79
2021/08/04 06:07:56;;;;;;;6.57;2.43;;;;;;;15.79;66.07;100660.19;3568534;40;20088;-78
2021/08/04 06:10:29;;;;;;;;;;;;;;;15.89;62.73;100671.16;3585571;40;20263;-78
2021/08/04 06:12:56;;;;;;;5.60;2.63;;;;;;;15.85;65.43;100672.22;3580719;40;19928;-78
2021/08/04 06:15:47;;;;;;;3.58;1.52;;;;;;;15.75;64.19;100651.56;3590169;40;20044;-78
2021/08/04 06:18:16;;;;;;;4.90;2.15;;;;;;;15.90;65.36;100667.59;3582721;40;20125;-79
2021/08/04 06:20:48;;;;;;;3.90;1.80;;;;;;;15.90;64.71;100670.22;3579995;40;20073;-78
2021/08/04 06:23:16;;;;;;;3.35;1.30;;;;;;;15.75;64.98;100645.44;3580450;40;20064;-78
2021/08/04 06:25:43;;;;;;;;;;;;;;;15.99;63.25;100669.81;3586823;40;20056;-79
2021/08/04 06:28:09;;;;;;;6.50;2.53;;;;;;;15.89;65.96;100655.34;3586260;40;20078;-79
2021/08/04 06:30:39;;;;;;;4.65;1.83;;;;;;;15.99;65.03;100665.41;3581180;40;20048;-79
2021/08/04 06:33:08;;;;;;;3.55;1.38;;;;;;;15.88;65.28;100640.50;3582220;40;21022;-79
2021/08/04 06:35:37;;;;;;;7.28;2.83;;;;;;;16.07;66.28;100667.69;3596122;40;20032;-79
2021/08/04 06:38:05;;;;;;;4.25;1.75;;;;;;;15.95;65.59;100631.38;3573832;40;20044;-79
2021/08/04 06:40:34;;;;;;;6.30;2.45;;;;;;;16.16;66.09;100667.25;3565905;40;20301;-79
2021/08/04 06:43:06;;;;;;;5.07;2.65;;;;;;;16.23;66.28;100673.09;3578168;40;20044;-78
2021/08/04 06:45:33;;;;;;;3.58;1.50;;;;;;;16.16;65.75;100654.06;3570930;40;20402;-79
2021/08/04 06:48:50;;;;;;;6.00;2.20;;;;;;;16.41;64.83;100672.22;3585147;40;20068;-79
2021/08/04 06:51:17;;;;;;;;;;;;;;;16.49;63.88;100669.25;3578646;40;20550;-78
2021/08/04 06:53:49;;;;;;;4.30;1.85;;;;;;;16.47;66.42;100656.13;3584670;40;19986;-79
2021/08/04 06:56:28;;;;;;;5.85;2.47;;;;;;;16.57;65.59;100657.41;3578848;40;20049;-79
2021/08/04 06:58:54;;;;;;;4.78;1.75;;;;;;;16.59;66.14;100662.59;3561096;40;20054;-79
2021/08/04 07:01:27;;;;;;;4.87;1.83;;;;;;;16.71;65.47;100667.31;3592994;40;20048;-78
2021/08/04 07:04:19;;;;;;;6.00;2.25;;;;;;;16.82;65.44;100662.34;3679972;22;21010;-82
2021/08/04 07:09:23;;;;;;;7.32;2.45;;;;;;;16.76;67.50;100628.38;3604237;23;20077;-80
2021/08/04 07:14:51;;;;;;;7.43;2.80;;;;;;;17.15;66.91;100652.84;3563977;39;20555;-80
2021/08/04 07:17:20;;;;;;;4.30;1.98;;;;;;;17.11;67.29;100631.03;3587373;39;20036;-80
2021/08/04 07:19:47;;;;;;;7.60;2.72;;;;;;;17.34;67.48;100657.13;3557257;40;20048;-80
2021/08/04 07:22:14;;;;;;;5.82;2.22;;;;;;;17.25;67.30;100618.00;3553106;40;20401;-80
2021/08/04 07:24:43;;;;;;;6.78;3.00;;;;;;;17.55;67.47;100646.38;3567108;40;20064;-80
2021/08/04 07:27:10;;;;;;;8.27;2.83;;;;;;;17.51;67.52;100621.06;3592965;40;20045;-80
2021/08/04 07:29:38;;;;;;;8.97;3.53;;;;;;;17.84;67.60;100651.00;3541668;40;20052;-81
2021/08/04 07:32:11;;;;;;;6.47;2.67;;;;;;;18.00;66.88;100647.53;3573575;40;20318;-80
2021/08/04 07:34:39;;;;;;;6.90;2.92;;;;;;;17.94;66.48;100629.34;3574520;40;20043;-80
2021/08/04 07:37:38;;;;;;;6.88;2.70;;;;;;;18.27;65.78;100655.72;3605401;22;20093;-80
2021/08/04 07:40:10;;;;;;;6.55;2.78;;;;;;;18.33;66.37;100640.38;3580043;40;20085;-81
2021/08/04 07:42:38;;;;;;;6.93;2.35;;;;;;;18.33;66.61;100632.44;3603113;22;20065;-79
2021/08/04 07:45:08;;;;;;;8.02;2.65;;;;;;;18.44;65.61;100630.97;3573284;40;20058;-80
2021/08/04 07:47:35;;;;;;;7.57;3.15;;;;;;;18.42;65.90;100624.00;3549564;40;20077;-81
2021/08/04 07:50:06;;;;;;;9.17;3.73;;;;;;;18.73;65.43;100654.00;3553493;40;22381;-81
2021/08/04 07:52:34;;;;;;;5.88;2.78;;;;;;;18.50;64.99;100612.09;3567884;40;20077;-80
2021/08/04 07:55:06;;;;;;;7.72;2.78;;;;;;;18.84;65.06;100650.75;3555653;40;20041;-80
2021/08/04 07:57:35;;;;;;;7.03;2.30;;;;;;;18.87;64.72;100651.44;3535351;40;25167;-80
2021/08/04 08:00:03;;;;;;;7.85;3.28;;;;;;;18.93;64.70;100653.72;3568405;40;20061;-80
2021/08/04 08:02:38;;;;;;;7.18;3.10;;;;;;;18.88;64.65;100642.53;3563370;40;20075;-80
2021/08/04 08:05:08;;;;;;;8.50;2.72;;;;;;;18.92;64.47;100632.63;3554841;40;20045;-80
2021/08/04 08:07:35;;;;;;;7.95;2.72;;;;;;;18.99;64.52;100646.34;3572167;40;20120;-80
2021/08/04 08:10:04;;;;;;;8.48;2.85;;;;;;;19.14;64.18;100653.41;3540084;40;20096;-79
2021/08/04 08:12:31;;;;;;;8.55;3.05;;;;;;;19.06;64.40;100639.75;3550820;40;20108;-80
2021/08/04 08:14:59;;;;;;;10.35;3.13;;;;;;;19.15;63.62;100657.75;3561380;40;20049;-81
2021/08/04 08:17:26;;;;;;;8.05;3.40;;;;;;;19.15;63.47;100649.81;3561824;40;20415;-80
2021/08/04 08:19:54;;;;;;;13.98;3.42;;;;;;;19.12;63.26;100650.84;3566262;40;20134;-81
2021/08/04 08:22:27;;;;;;;7.97;3.30;;;;;;;19.33;62.72;100675.19;3563897;40;20433;-80
2021/08/04 08:24:56;;;;;;;8.07;3.55;;;;;;;19.22;63.26;100652.97;3560961;40;20323;-79
2021/08/04 08:27:29;;;;;;;7.65;3.63;;;;;;;19.28;63.00;100656.09;3563960;40;20088;-80
2021/08/04 08:29:56;;;;;;;7.78;3.65;;;;;;;19.27;63.56;100658.84;3565952;40;20055;-80
2021/08/04 08:32:26;;;;;;;7.90;3.17;;;;;;;19.38;63.89;100669.63;3571345;40;20057;-80
2021/08/04 08:35:20;;;;;;;7.03;3.53;;;;;;;19.52;62.69;100666.16;3560082;40;20451;-79
2021/08/04 08:37:49;;;;;;;7.75;2.85;;;;;;;19.48;64.02;100652.25;3569718;40;20067;-80
2021/08/04 08:40:21;;;;;;;7.30;3.60;;;;;;;19.65;63.01;100661.81;3562922;40;20085;-80
2021/08/04 08:42:47;;;;;;;8.38;3.88;;;;;;;19.58;63.91;100641.94;3562960;40;20055;-79
2021/08/04 08:45:15;;;;;;;12.37;3.60;;;;;;;19.68;62.93;100643.97;3581745;40;20049;-80
2021/08/04 08:47:46;;;;;;;;;;;;;;;20.05;62.88;100659.38;3581694;40;20275;-80
2021/08/04 08:50:22;;;;;;;7.05;2.83;;;;;;;19.86;61.99;100626.06;3573138;40;19965;-80
2021/08/04 08:52:55;;;;;;;6.60;3.00;;;;;;;20.26;62.05;100655.34;3567841;40;20107;-80
2021/08/04 08:55:24;;;;;;;8.73;3.85;;;;;;;20.43;62.06;100656.94;3575892;40;20052;-80
2021/08/04 08:57:56;;;;;;;7.20;3.17;;;;;;;20.55;61.50;100644.72;3572884;40;20069;-80
2021/08/04 09:00:26;;;;;;;6.85;2.92;;;;;;;20.47;61.04;100608.06;3571387;40;20049;-80
2021/08/04 09:02:56;;;;;;;7.05;2.92;;;;;;;20.80;60.79;100644.81;3589584;40;20080;-80
2021/08/04 09:05:26;;;;;;;8.20;3.03;;;;;;;20.69;60.78;100611.00;3572321;40;20337;-80
2021/08/04 09:07:59;;;;;;;7.78;3.08;;;;;;;20.87;60.21;100614.22;3577491;40;20041;-80
2021/08/04 09:10:34;;;;;;;7.30;3.05;;;;;;;21.13;58.93;100640.81;3576177;40;20744;-80
2021/08/04 09:13:06;;;;;;;7.03;2.92;;;;;;;21.18;59.50;100633.41;3581477;40;20053;-80
2021/08/04 09:15:42;;;;;;;6.72;3.13;;;;;;;21.38;59.49;100645.34;3590107;40;20069;-80
2021/08/04 09:18:41;;;;;;;7.68;2.88;;;;;;;21.54;59.90;100647.78;3569971;40;22240;-80
2021/08/04 09:21:11;;;;;;;8.02;2.83;;;;;;;21.62;58.39;100641.00;3568122;40;20048;-81
2021/08/04 09:23:44;;;;;;;6.25;2.38;;;;;;;21.75;58.30;100635.69;3584462;40;20056;-80
2021/08/04 09:26:13;;;;;;;5.85;2.33;;;;;;;21.83;58.10;100630.66;3576756;40;20064;-81
2021/08/04 09:29:03;;;;;;;6.82;2.88;;;;;;;22.07;58.15;100635.22;3585809;40;20052;-80
2021/08/04 09:31:40;;;;;;;6.57;2.72;;;;;;;22.19;58.00;100631.69;3586964;40;20411;-80
2021/08/04 09:34:26;;;;;;;;;;;;;;;22.37;58.95;100638.34;3570624;40;20516;-80
2021/08/04 09:37:02;;;;;;;8.45;3.05;;;;;;;22.50;56.37;100631.13;3576702;40;19939;-80
2021/08/04 09:39:32;;;;;;;6.43;2.73;;;;;;;22.56;56.22;100640.50;3570871;40;20390;-80
2021/08/04 09:42:00;;;;;;;6.38;2.58;;;;;;;22.52;55.89;100618.59;3588168;40;20287;-80
2021/08/04 09:44:27;;;;;;;5.85;2.67;;;;;;;22.74;54.03;100632.97;3587096;40;20517;-80
2021/08/04 09:47:06;;;;;;;7.38;2.92;;;;;;;22.96;55.77;100633.09;3564120;40;20053;-80
2021/08/04 09:49:33;;;;;;;7.93;2.78;;;;;;;23.07;53.33;100634.94;3588184;40;20109;-80
2021/08/04 09:52:10;;;;;;;6.95;3.10;;;;;;;23.25;53.88;100630.84;3576174;40;20041;-80
2021/08/04 09:54:42;;;;;;;6.72;3.20;;;;;;;23.30;53.67;100622.50;3572723;40;20059;-80
2021/08/04 09:57:11;;;;;;;7.40;3.30;;;;;;;23.39;52.56;100603.13;3584474;40;20332;-81
2021/08/04 09:59:39;;;;;;;6.88;2.80;;;;;;;23.55;52.34;100627.63;3576186;40;20060;-80
2021/08/04 10:02:26;;;;;;;6.93;3.17;;;;;;;23.77;53.63;100625.97;3586491;40;20040;-80
2021/08/04 10:05:12;;;;;;;8.02;3.20;;;;;;;23.90;53.96;100624.03;3571656;40;20465;-80
2021/08/04 10:07:59;;;;;;;6.20;2.83;;;;;;;24.04;53.67;100614.94;3568738;40;20049;-81
2021/08/04 10:10:30;;;;;;;6.68;2.50;;;;;;;24.12;52.58;100617.81;3567174;40;20491;-81
2021/08/04 10:12:59;;;;;;;5.38;2.40;;;;;;;24.23;51.55;100614.25;3572508;40;20085;-81
2021/08/04 10:15:26;;;;;;;6.07;2.58;;;;;;;24.34;49.77;100606.25;3585061;40;20057;-80
2021/08/04 10:17:55;;;;;;;6.43;2.53;;;;;;;24.48;50.18;100614.00;3577299;40;20080;-81
2021/08/04 10:20:24;;;;;;;5.32;2.53;;;;;;;24.47;49.54;100590.09;3569476;40;20096;-80
2021/08/04 10:22:55;;;;;;;6.40;2.95;;;;;;;24.61;50.25;100608.50;3570285;40;20094;-80
2021/08/04 10:25:24;;;;;;;6.50;2.42;;;;;;;24.64;49.14;100602.06;3557457;40;20525;-80
2021/08/04 10:27:51;;;;;;;6.50;2.80;;;;;;;24.69;48.54;100595.38;3562302;40;20054;-80
2021/08/04 10:30:19;;;;;;;6.78;2.80;;;;;;;24.75;49.60;100588.66;3578369;40;20068;-80
2021/08/04 10:32:48;;;;;;;5.53;2.45;;;;;;;24.80;48.54;100591.78;3578166;40;20036;-81
2021/08/04 10:35:17;;;;;;;6.10;2.45;;;;;;;24.92;48.88;100596.09;3566745;40;20056;-79
2021/08/04 10:37:47;;;;;;;5.85;2.50;;;;;;;24.92;48.98;100580.06;3574616;40;20079;-81
2021/08/04 10:40:16;;;;;;;6.28;2.50;;;;;;;25.05;48.66;100591.41;3588451;40;20067;-79
2021/08/04 10:42:47;;;;;;;6.22;2.47;;;;;;;25.13;48.99;100576.56;3584678;40;20553;-80
2021/08/04 10:45:23;;;;;;;4.35;2.00;;;;;;;25.31;49.34;100596.38;3578740;40;20097;-80
2021/08/04 10:47:51;;;;;;;5.00;2.25;;;;;;;25.33;48.48;100595.25;3567547;40;20057;-80
2021/08/04 10:50:23;;;;;;;5.55;2.10;;;;;;;25.57;48.22;100594.09;3574889;40;20068;-80
2021/08/04 10:53:02;;;;;;;5.45;2.33;;;;;;;25.77;48.67;100592.41;3572213;40;20069;-80
2021/08/04 10:55:52;;;;;;;4.72;2.28;;;;;;;26.08;49.46;100580.66;3574974;40;20069;-80
2021/08/04 10:58:21;;;;;;;7.25;2.78;;;;;;;26.25;47.53;100576.44;3558765;40;20071;-80
2021/08/04 11:00:52;;;;;;;6.20;2.08;;;;;;;26.46;48.52;100568.34;3570034;40;20318;-81
2021/08/04 11:03:41;;;;;;;5.95;2.55;;;;;;;26.95;48.10;100582.53;3568744;40;20059;-80
2021/08/04 11:06:12;;;;;;;5.45;2.63;;;;;;;27.01;44.48;100568.56;3577337;40;20077;-80
2021/08/04 11:08:40;;;;;;;6.15;2.50;;;;;;;27.25;43.07;100568.09;3555778;40;20064;-80
2021/08/04 11:11:07;;;;;;;5.50;2.47;;;;;;;27.44;43.21;100567.22;3565544;40;20056;-80
2021/08/04 11:13:46;;;;;;;4.63;2.30;;;;;;;27.83;45.05;100569.72;3569634;40;20068;-80
2021/08/04 11:16:32;;;;;;;5.15;2.08;;;;;;;28.16;46.20;100557.53;3578170;40;20064;-79
2021/08/04 11:19:09;;;;;;;5.70;2.53;;;;;;;28.51;43.47;100548.66;3573080;40;20064;-80
2021/08/04 11:21:37;;;;;;;5.38;2.45;;;;;;;28.75;40.94;100550.72;3572156;40;20088;-80
2021/08/04 11:24:06;;;;;;;5.60;2.50;;;;;;;29.00;40.20;100554.47;3573388;40;20060;-80
2021/08/04 11:26:37;;;;;;;5.22;2.63;;;;;;;29.25;39.68;100541.13;3568194;40;20056;-80
2021/08/04 11:29:08;;;;;;;4.82;2.65;;;;;;;29.46;41.52;100549.69;3571139;40;20363;-80
2021/08/04 11:31:40;;;;;;;5.05;2.55;;;;;;;29.53;40.59;100544.50;3573824;40;20053;-80
2021/08/04 11:34:30;;;;;;;4.50;2.20;;;;;;;29.57;41.73;100552.13;3545539;40;20071;-79
2021/08/04 11:36:59;;;;;;;3.83;1.88;;;;;;;29.20;39.65;100509.38;3566686;40;20072;-79
2021/08/04 11:39:28;;;;;;;5.57;2.85;;;;;;;29.37;36.63;100535.34;3573275;40;20055;-79
2021/08/04 11:42:05;;;;;;;5.03;2.17;;;;;;;29.42;39.26;100537.56;3565101;40;20065;-79
2021/08/04 11:44:32;;;;;;;4.55;2.20;;;;;;;29.27;37.14;100539.16;3577307;40;20061;-79
2021/08/04 11:47:06;;;;;;;;;;;;;;;29.39;42.34;100540.56;3570681;40;20053;-79
2021/08/04 11:49:37;;;;;;;7.07;2.90;;;;;;;29.18;38.54;100531.03;3562974;40;20375;-80
2021/08/04 11:52:14;;;;;;;5.50;2.65;;;;;;;29.17;39.85;100537.41;3567184;40;20082;-79
2021/08/04 11:55:05;;;;;;;4.00;1.92;;;;;;;29.16;39.19;100522.28;3556667;40;20125;-80